Time;durP1;ratioP1;P1;durP2;ratioP2;P2;SDS_P1;SDS_P2;PMS_P1;PMS_P2;Temp;Humidity;BMP_temperature;BMP_pressure;BME280_temperature;BME280_humidity;BME280_pressure;Samples;Min_cycle;Max_cycle;Signal;HPM_P1;HPM_P2
2022/03/29 04:01:02;;;;;;;18.93;10.40;;;2.50;96.30;;;;;;5659556;23;21147;-79
2022/03/29 04:03:27;;;;;;;18.07;11.83;;;2.40;96.30;;;;;;4979197;28;20511;-78
2022/03/29 04:05:53;;;;;;;25.40;12.80;;;2.40;96.30;;;;;;4996913;28;20201;-79
2022/03/29 04:08:18;;;;;;;19.30;12.57;;;2.40;96.30;;;;;;4979272;28;20204;-78
2022/03/29 04:10:44;;;;;;;19.80;12.30;;;2.40;96.30;;;;;;4980898;28;20198;-79
2022/03/29 04:13:10;;;;;;;23.20;13.30;;;2.50;96.30;;;;;;4996651;28;20614;-76
2022/03/29 04:15:36;;;;;;;18.80;12.43;;;2.50;96.30;;;;;;4997292;28;20531;-75
2022/03/29 04:18:01;;;;;;;25.33;12.27;;;2.40;96.30;;;;;;4996500;28;20174;-79
2022/03/29 04:20:29;;;;;;;22.27;13.60;;;2.40;96.30;;;;;;5018794;28;20173;-78
2022/03/29 04:22:55;;;;;;;21.53;13.70;;;2.40;96.30;;;;;;5014180;28;20177;-78
2022/03/29 04:25:21;;;;;;;27.90;13.53;;;2.40;96.30;;;;;;5011187;28;20496;-80
2022/03/29 04:27:46;;;;;;;21.33;12.90;;;2.50;96.30;;;;;;5017430;28;20506;-80
2022/03/29 04:30:12;;;;;;;24.47;13.43;;;2.40;96.30;;;;;;5003017;28;20173;-78
2022/03/29 04:32:37;;;;;;;22.33;13.03;;;2.10;96.30;;;;;;5002412;28;20173;-79
2022/03/29 04:35:04;;;;;;;20.30;11.60;;;2.10;96.30;;;;;;5001700;28;20268;-79
2022/03/29 04:37:30;;;;;;;18.83;12.40;;;2.00;96.30;;;;;;5020419;28;20209;-78
2022/03/29 04:39:55;;;;;;;21.13;12.00;;;1.90;96.30;;;;;;5022417;28;20408;-81
2022/03/29 04:42:21;;;;;;;19.00;11.43;;;2.00;96.30;;;;;;4999873;28;20196;-79
2022/03/29 04:44:46;;;;;;;18.07;12.17;;;2.00;96.30;;;;;;4999550;28;20207;-79
2022/03/29 04:47:12;;;;;;;22.00;12.03;;;2.00;96.30;;;;;;5016900;28;20177;-79
2022/03/29 04:49:37;;;;;;;21.10;11.90;;;2.00;96.30;;;;;;4993986;28;20193;-79
2022/03/29 04:52:03;;;;;;;20.87;11.93;;;2.00;96.30;;;;;;5007374;28;20200;-78
2022/03/29 04:54:29;;;;;;;26.17;12.10;;;1.70;96.30;;;;;;5017296;28;20248;-77
2022/03/29 04:56:54;;;;;;;16.73;11.47;;;1.70;96.30;;;;;;5000121;28;20255;-79
2022/03/29 04:59:20;;;;;;;17.07;12.10;;;1.70;96.30;;;;;;4999334;28;20637;-79
2022/03/29 05:01:45;;;;;;;18.93;11.20;;;1.60;96.30;;;;;;5016876;28;20593;-78
2022/03/29 05:04:11;;;;;;;16.30;11.30;;;1.50;96.30;;;;;;5018110;28;20248;-78
2022/03/29 05:06:36;;;;;;;17.13;12.17;;;1.50;96.30;;;;;;5018888;28;20228;-79
2022/03/29 05:09:03;;;;;;;22.33;13.13;;;1.50;96.30;;;;;;4998729;28;20221;-80
2022/03/29 05:11:29;;;;;;;20.03;14.30;;;1.50;96.30;;;;;;5015297;28;20197;-80
2022/03/29 05:13:55;;;;;;;20.63;13.37;;;1.70;96.30;;;;;;4997418;28;20931;-79
2022/03/29 05:16:20;;;;;;;20.00;13.07;;;1.80;96.30;;;;;;4998995;28;20197;-79
2022/03/29 05:18:46;;;;;;;28.57;13.10;;;1.90;96.30;;;;;;4982439;28;20176;-77
2022/03/29 05:21:12;;;;;;;26.30;12.83;;;1.90;96.30;;;;;;4996772;28;20287;-79
2022/03/29 05:23:38;;;;;;;31.37;14.30;;;1.90;96.30;;;;;;5015102;28;20443;-78
2022/03/29 05:26:03;;;;;;;32.80;14.33;;;2.00;96.30;;;;;;5010801;28;20271;-79
2022/03/29 05:28:29;;;;;;;23.00;13.53;;;2.20;96.30;;;;;;4988649;28;20272;-79
2022/03/29 05:30:54;;;;;;;21.57;13.80;;;2.40;96.30;;;;;;4996884;28;20197;-78
2022/03/29 05:33:20;;;;;;;32.77;14.47;;;2.60;96.30;;;;;;4994220;28;20740;-75
2022/03/29 05:35:45;;;;;;;26.93;15.00;;;2.70;96.30;;;;;;5008416;28;20204;-76
2022/03/29 05:38:11;;;;;;;35.33;15.43;;;2.70;96.30;;;;;;5003970;28;20536;-75
2022/03/29 05:40:38;;;;;;;21.37;12.87;;;2.70;96.30;;;;;;4996370;28;20196;-75
2022/03/29 05:43:07;;;;;;;25.83;16.10;;;2.80;96.30;;;;;;4995059;28;20428;-76
2022/03/29 05:45:33;;;;;;;32.03;15.30;;;3.00;96.30;;;;;;5011022;28;20875;-76
2022/03/29 05:50:42;;;;;;;29.57;15.07;;;3.30;96.30;;;;;;5004977;28;20207;-79
2022/03/29 05:53:08;;;;;;;28.93;15.43;;;3.50;96.30;;;;;;5016155;28;20412;-79
2022/03/29 05:55:34;;;;;;;27.53;17.43;;;3.50;96.30;;;;;;5016035;28;20169;-77
2022/03/29 05:58:00;;;;;;;30.73;17.73;;;3.70;96.30;;;;;;4998171;28;20172;-78
2022/03/29 06:00:26;;;;;;;33.33;17.70;;;3.80;96.30;;;;;;4998888;28;20504;-78
2022/03/29 06:02:55;;;;;;;35.23;19.27;;;3.90;96.30;;;;;;5016302;28;20169;-79
2022/03/29 06:05:21;;;;;;;49.30;20.20;;;4.00;96.30;;;;;;4996800;28;20427;-79
2022/03/29 06:07:46;;;;;;;42.63;22.57;;;4.10;96.30;;;;;;4996926;28;20408;-79
2022/03/29 06:10:12;;;;;;;39.07;22.87;;;4.20;96.30;;;;;;5014571;28;20508;-79
2022/03/29 06:12:38;;;;;;;36.97;22.03;;;4.30;96.30;;;;;;5014510;28;20248;-78
2022/03/29 06:15:05;;;;;;;41.17;24.17;;;4.40;96.30;;;;;;5014822;28;20252;-78
2022/03/29 06:17:30;;;;;;;30.43;16.97;;;4.50;96.30;;;;;;4996291;28;20211;-77
2022/03/29 06:19:56;;;;;;;35.17;16.37;;;4.60;96.30;;;;;;5014643;28;20412;-77
2022/03/29 06:22:22;;;;;;;28.13;17.53;;;4.50;96.30;;;;;;4993502;28;20193;-79
2022/03/29 06:24:48;;;;;;;29.90;17.57;;;4.50;96.30;;;;;;4993266;28;20276;-78
2022/03/29 06:27:14;;;;;;;24.70;15.80;;;4.50;96.30;;;;;;4992084;28;20923;-79
2022/03/29 06:29:39;;;;;;;21.97;14.40;;;4.40;96.30;;;;;;4995218;28;20181;-78
2022/03/29 06:32:05;;;;;;;26.17;16.33;;;4.30;96.30;;;;;;5013520;28;20567;-78
2022/03/29 06:34:31;;;;;;;33.07;19.10;;;4.40;96.30;;;;;;5014270;28;20169;-78
2022/03/29 06:36:57;;;;;;;37.10;19.07;;;4.50;96.30;;;;;;4996845;28;20508;-77
2022/03/29 06:39:22;;;;;;;31.37;19.27;;;4.60;96.30;;;;;;5007261;28;20189;-77
2022/03/29 06:41:48;;;;;;;29.27;18.00;;;4.80;96.30;;;;;;4984655;28;20190;-79
2022/03/29 06:44:14;;;;;;;30.00;17.67;;;4.90;96.30;;;;;;5012482;28;20212;-79
2022/03/29 06:46:40;;;;;;;29.93;18.33;;;4.80;96.30;;;;;;4993439;28;20534;-79
2022/03/29 06:49:06;;;;;;;28.37;17.73;;;4.80;96.30;;;;;;4995988;28;20174;-79
2022/03/29 06:51:32;;;;;;;28.43;18.07;;;4.90;96.30;;;;;;4995554;28;20433;-78
2022/03/29 06:53:58;;;;;;;29.37;18.27;;;4.90;96.30;;;;;;5001873;28;20483;-79
2022/03/29 06:56:25;;;;;;;29.07;18.53;;;4.90;96.30;;;;;;4996670;28;20598;-79
2022/03/29 06:58:51;;;;;;;27.97;19.20;;;4.90;96.30;;;;;;5008572;28;20268;-79
2022/03/29 07:01:16;;;;;;;32.43;18.33;;;5.00;96.30;;;;;;4987056;28;20460;-79
2022/03/29 07:03:42;;;;;;;27.80;18.10;;;5.10;96.30;;;;;;5003654;28;20178;-77
2022/03/29 07:06:08;;;;;;;29.57;20.50;;;5.10;96.30;;;;;;5001829;28;20182;-79
2022/03/29 07:08:34;;;;;;;39.03;21.20;;;5.20;96.30;;;;;;4999871;28;20269;-79
2022/03/29 07:11:16;;;;;;;32.53;19.20;;;5.20;96.30;;;;;;4992553;28;20283;-78
2022/03/29 07:13:42;;;;;;;28.33;17.17;;;5.40;96.30;;;;;;5015638;28;21124;-76
2022/03/29 07:16:09;;;;;;;27.73;17.10;;;5.30;96.30;;;;;;5015844;28;20451;-76
2022/03/29 07:18:35;;;;;;;29.67;18.70;;;5.30;96.30;;;;;;5016281;28;20814;-77
2022/03/29 07:21:01;;;;;;;33.40;22.30;;;5.40;96.30;;;;;;5015750;28;20424;-76
2022/03/29 07:23:27;;;;;;;39.77;21.73;;;5.50;96.30;;;;;;5016001;28;20906;-77
2022/03/29 07:25:53;;;;;;;34.83;22.40;;;5.50;96.30;;;;;;4998424;28;20224;-80
2022/03/29 07:28:19;;;;;;;42.13;21.67;;;5.50;96.30;;;;;;5015697;28;20414;-80
2022/03/29 07:30:46;;;;;;;37.20;20.80;;;5.60;96.30;;;;;;5013574;28;20431;-78
2022/03/29 07:33:11;;;;;;;45.90;25.50;;;5.80;96.30;;;;;;4982683;28;20182;-80
2022/03/29 07:35:37;;;;;;;44.60;25.00;;;5.90;96.30;;;;;;5003209;28;20413;-80
2022/03/29 07:38:07;;;;;;;42.50;24.37;;;6.00;96.30;;;;;;4995823;28;20170;-79
2022/03/29 07:40:34;;;;;;;47.33;23.60;;;6.20;96.30;;;;;;4995921;28;20429;-80
2022/03/29 07:42:59;;;;;;;43.53;24.23;;;6.40;96.30;;;;;;4978336;28;20416;-79
2022/03/29 07:45:25;;;;;;;41.27;23.77;;;6.50;96.30;;;;;;4979957;28;20408;-78
2022/03/29 07:47:55;;;;;;;41.77;24.43;;;6.50;96.30;;;;;;4996404;28;20169;-80
2022/03/29 07:50:22;;;;;;;45.07;25.50;;;6.50;96.30;;;;;;4997080;28;20653;-78
2022/03/29 07:52:47;;;;;;;45.90;25.87;;;6.60;96.30;;;;;;4978909;28;20930;-78
2022/03/29 07:55:13;;;;;;;36.67;25.30;;;6.60;96.30;;;;;;4995988;28;20500;-80
2022/03/29 07:57:40;;;;;;;39.60;24.73;;;6.60;96.30;;;;;;4978951;28;20945;-80
2022/03/29 08:02:53;;;;;;;41.77;24.80;;;6.60;96.30;;;;;;4997136;28;20420;-80
2022/03/29 08:05:19;;;;;;;43.20;24.23;;;6.40;96.30;;;;;;4996141;28;20397;-79
2022/03/29 08:07:45;;;;;;;48.10;25.10;;;6.40;96.30;;;;;;4978394;28;20436;-80
2022/03/29 08:10:11;;;;;;;49.57;26.63;;;6.30;96.30;;;;;;4978399;28;20496;-80
2022/03/29 08:12:37;;;;;;;59.50;27.80;;;6.30;96.30;;;;;;4979412;28;20441;-80
2022/03/29 08:15:04;;;;;;;57.70;27.93;;;6.20;96.30;;;;;;5002844;28;20172;-77
2022/03/29 08:17:30;;;;;;;68.70;34.40;;;6.30;96.30;;;;;;4996597;28;20547;-77
2022/03/29 08:19:56;;;;;;;74.20;35.83;;;6.30;96.30;;;;;;4996812;28;20444;-78
2022/03/29 08:22:21;;;;;;;61.10;35.17;;;6.20;96.30;;;;;;5005041;28;20216;-77
2022/03/29 08:24:47;;;;;;;72.57;36.03;;;6.20;96.30;;;;;;4994564;28;20224;-77
2022/03/29 08:27:14;;;;;;;62.93;35.47;;;6.20;96.30;;;;;;4994683;28;20186;-78
2022/03/29 08:29:40;;;;;;;60.80;35.80;;;6.30;96.30;;;;;;4994443;28;20177;-75
2022/03/29 08:32:06;;;;;;;65.53;35.67;;;6.20;96.30;;;;;;5007957;28;20436;-77
2022/03/29 08:34:32;;;;;;;68.10;39.17;;;6.30;96.30;;;;;;5011344;28;20450;-76
2022/03/29 08:36:57;;;;;;;70.87;38.43;;;6.40;96.30;;;;;;5011366;28;20448;-76
2022/03/29 08:39:23;;;;;;;67.80;37.07;;;6.40;96.30;;;;;;5005025;28;20178;-77
2022/03/29 08:42:10;;;;;;;65.10;38.30;;;6.30;96.30;;;;;;5002566;28;20255;-77
2022/03/29 08:44:38;;;;;;;70.97;39.57;;;6.00;96.30;;;;;;4994884;28;20150;-76
2022/03/29 08:47:08;;;;;;;69.43;39.70;;;6.20;96.30;;;;;;4995565;28;20487;-77
2022/03/29 08:49:34;;;;;;;76.47;41.53;;;6.20;96.30;;;;;;4978176;28;20405;-76
2022/03/29 08:51:59;;;;;;;76.27;41.70;;;6.20;96.30;;;;;;4995386;28;20463;-77
2022/03/29 08:54:25;;;;;;;69.33;37.87;;;6.10;96.30;;;;;;4978110;28;20936;-78
2022/03/29 08:56:51;;;;;;;71.03;38.83;;;6.10;96.30;;;;;;4978670;28;20197;-77
2022/03/29 08:59:17;;;;;;;68.23;38.50;;;6.10;96.30;;;;;;4996166;28;20181;-76
2022/03/29 09:01:42;;;;;;;81.70;43.70;;;6.20;96.30;;;;;;5011651;28;20199;-83
2022/03/29 09:04:09;;;;;;;75.00;41.10;;;6.30;96.30;;;;;;5029504;28;20492;-84
2022/03/29 09:06:50;;;;;;;186.17;88.57;;;6.60;96.30;;;;;;5019255;28;20165;-83
2022/03/29 09:09:31;;;;;;;73.83;43.77;;;6.80;96.30;;;;;;5014213;28;20433;-75
2022/03/29 09:11:59;;;;;;;75.90;37.90;;;7.30;96.30;;;;;;4994133;28;20444;-76
2022/03/29 09:14:28;;;;;;;66.47;35.53;;;7.90;96.30;;;;;;4998979;28;20432;-78
2022/03/29 09:16:54;;;;;;;419.20;183.23;;;8.40;96.30;;;;;;5007337;28;20460;-78
2022/03/29 09:19:23;;;;;;;75.10;44.37;;;8.20;96.30;;;;;;5000785;28;20809;-80
2022/03/29 09:21:49;;;;;;;63.83;38.50;;;8.10;96.30;;;;;;4979844;28;20870;-79
2022/03/29 09:24:18;;;;;;;125.27;61.80;;;8.20;96.30;;;;;;4977851;28;20500;-80
2022/03/29 09:26:46;;;;;;;67.63;38.93;;;8.10;96.30;;;;;;4996257;28;20411;-81
2022/03/29 09:29:20;;;;;;;63.40;34.77;;;8.30;96.30;;;;;;4996138;28;20415;-81
2022/03/29 09:31:50;;;;;;;60.43;35.37;;;8.30;96.30;;;;;;4979539;28;20529;-79
2022/03/29 09:34:19;;;;;;;56.03;34.20;;;8.20;96.30;;;;;;4997387;28;20889;-81
2022/03/29 09:36:52;;;;;;;55.73;32.03;;;8.10;96.30;;;;;;4997862;28;20467;-80
2022/03/29 09:39:30;;;;;;;57.23;32.50;;;8.20;96.30;;;;;;4996349;28;20503;-80
2022/03/29 09:42:00;;;;;;;56.27;32.63;;;8.20;96.30;;;;;;4994179;28;20444;-79
2022/03/29 09:44:40;;;;;;;59.30;31.07;;;8.10;96.30;;;;;;4988804;28;20459;-80
2022/03/29 09:47:07;;;;;;;52.13;33.10;;;8.10;96.30;;;;;;5006663;28;20489;-78
2022/03/29 09:49:57;;;;;;;52.97;31.87;;;8.40;96.30;;;;;;5006554;28;20409;-80
2022/03/29 09:52:26;;;;;;;66.80;32.20;;;8.30;96.30;;;;;;5000451;28;20829;-82
2022/03/29 09:55:15;;;;;;;59.67;31.97;;;8.40;96.30;;;;;;5020199;28;20478;-81
2022/03/29 09:57:47;;;;;;;53.87;31.40;;;8.70;96.30;;;;;;5034216;28;20458;-81
2022/03/29 10:00:16;;;;;;;54.37;32.23;;;9.00;96.30;;;;;;4994306;28;20904;-81
2022/03/29 10:02:45;;;;;;;55.87;35.57;;;9.20;96.30;;;;;;4994530;28;20461;-79
2022/03/29 10:05:11;;;;;;;59.77;34.33;;;9.30;96.30;;;;;;5000587;28;20423;-83
2022/03/29 10:09:25;;;;;;;67.70;34.77;;;9.30;96.30;;;;;;4995290;28;20431;-82
2022/03/29 10:10:45;;;;;;;58.97;34.77;;;9.70;96.30;;;;;;4993410;28;20448;-78
2022/03/29 10:13:12;;;;;;;60.63;35.47;;;9.80;96.30;;;;;;4992345;28;20515;-82
2022/03/29 10:15:39;;;;;;;62.93;34.60;;;10.10;96.30;;;;;;4996450;28;20460;-82
2022/03/29 10:18:05;;;;;;;54.53;33.03;;;10.20;96.30;;;;;;4998493;28;20432;-81
2022/03/29 10:20:33;;;;;;;59.20;34.60;;;10.10;96.30;;;;;;5000608;28;20440;-81
2022/03/29 10:22:59;;;;;;;63.40;34.73;;;9.90;96.30;;;;;;4998786;28;20501;-81
2022/03/29 10:25:26;;;;;;;64.17;36.97;;;10.10;96.30;;;;;;4992942;28;20431;-77
2022/03/29 10:27:54;;;;;;;60.03;34.90;;;10.10;96.30;;;;;;4992790;28;20455;-77
2022/03/29 10:30:37;;;;;;;63.57;36.27;;;10.00;96.30;;;;;;4992751;28;20452;-76
2022/03/29 10:33:23;;;;;;;67.90;37.40;;;10.30;96.30;;;;;;4998847;28;20411;-80
2022/03/29 10:36:02;;;;;;;66.83;39.83;;;10.30;96.30;;;;;;5015961;28;20416;-76
2022/03/29 10:38:43;;;;;;;75.50;38.70;;;10.40;96.30;;;;;;5016188;28;20415;-77
2022/03/29 10:41:30;;;;;;;68.33;39.10;;;10.80;96.30;;;;;;5016164;28;20985;-78
2022/03/29 10:44:02;;;;;;;71.53;40.17;;;10.90;96.30;;;;;;5016231;28;20444;-76
2022/03/29 10:46:36;;;;;;;70.40;39.80;;;11.60;96.30;;;;;;5016183;28;20496;-76
2022/03/29 10:49:23;;;;;;;62.37;37.27;;;11.70;96.30;;;;;;4998269;28;20434;-77
2022/03/29 10:51:50;;;;;;;74.50;41.53;;;12.40;96.30;;;;;;4984674;28;20444;-76
2022/03/29 10:54:37;;;;;;;72.43;41.30;;;12.50;96.30;;;;;;4996475;28;20408;-77
2022/03/29 10:57:07;;;;;;;70.43;40.20;;;12.70;96.30;;;;;;4995933;28;20456;-76
2022/03/29 10:59:34;;;;;;;74.80;40.47;;;12.60;96.30;;;;;;4978696;28;20858;-76
2022/03/29 11:02:19;;;;;;;68.70;41.23;;;12.00;96.30;;;;;;4996103;28;20456;-76
2022/03/29 11:05:08;;;;;;;72.83;41.67;;;12.30;96.30;;;;;;4996330;28;20400;-76
2022/03/29 11:07:51;;;;;;;65.30;37.30;;;12.80;96.30;;;;;;4995992;28;20761;-76
2022/03/29 11:10:23;;;;;;;73.37;40.03;;;12.50;96.30;;;;;;4996133;28;20416;-76
2022/03/29 11:12:54;;;;;;;71.00;43.10;;;12.80;96.30;;;;;;4996155;28;20404;-76
2022/03/29 11:15:25;;;;;;;72.07;41.50;;;13.20;96.30;;;;;;4996074;28;20413;-76
2022/03/29 11:17:51;;;;;;;62.30;38.57;;;13.10;96.30;;;;;;4995656;28;20542;-76
2022/03/29 11:20:38;;;;;;;57.27;36.20;;;12.80;96.30;;;;;;4978369;28;20504;-76
2022/03/29 11:23:06;;;;;;;59.90;35.97;;;12.60;96.30;;;;;;4995909;28;20169;-76
2022/03/29 11:25:43;;;;;;;62.57;35.17;;;12.20;96.30;;;;;;4978415;28;20408;-76
2022/03/29 11:28:14;;;;;;;56.47;34.80;;;12.30;96.30;;;;;;4995674;28;20397;-79
2022/03/29 11:30:40;;;;;;;57.03;31.90;;;12.10;96.30;;;;;;4995808;28;20416;-76
2022/03/29 11:33:08;;;;;;;62.63;36.20;;;12.10;96.30;;;;;;4991537;28;20434;-76
2022/03/29 11:35:39;;;;;;;52.03;33.63;;;12.20;96.30;;;;;;4997746;28;20431;-76
2022/03/29 11:38:12;;;;;;;56.70;34.70;;;12.30;96.30;;;;;;4997554;28;20412;-77
2022/03/29 11:40:39;;;;;;;51.33;32.20;;;12.00;96.30;;;;;;4995573;28;20432;-76
2022/03/29 11:43:10;;;;;;;47.90;30.30;;;11.80;96.30;;;;;;4983457;28;20409;-79
2022/03/29 11:45:43;;;;;;;49.13;32.40;;;11.60;96.30;;;;;;5018491;28;20892;-79
2022/03/29 11:48:12;;;;;;;51.33;31.70;;;11.80;96.30;;;;;;5004115;28;20475;-79
2022/03/29 11:50:53;;;;;;;50.50;29.90;;;11.90;96.30;;;;;;5012470;28;20503;-79
2022/03/29 11:53:27;;;;;;;50.53;32.13;;;12.30;96.30;;;;;;4986079;28;20434;-80
2022/03/29 11:55:56;;;;;;;51.63;31.23;;;12.90;96.30;;;;;;5005140;28;20543;-80
2022/03/29 11:58:33;;;;;;;49.90;30.60;;;13.00;96.30;;;;;;4998077;28;20442;-79
2022/03/29 12:01:09;;;;;;;46.27;30.37;;;13.30;96.30;;;;;;5004730;28;20459;-79
2022/03/29 12:03:47;;;;;;;49.57;29.80;;;13.20;96.30;;;;;;5002161;28;20574;-79
2022/03/29 12:06:22;;;;;;;44.03;31.20;;;13.20;96.30;;;;;;5001895;28;20417;-79
2022/03/29 12:08:58;;;;;;;41.43;25.90;;;12.80;96.30;;;;;;5002329;28;20974;-79
2022/03/29 12:11:27;;;;;;;40.13;26.20;;;12.60;96.30;;;;;;4997962;28;20451;-79
2022/03/29 12:14:02;;;;;;;41.93;25.10;;;12.90;96.30;;;;;;5019209;28;20891;-79
2022/03/29 12:16:28;;;;;;;41.77;26.93;;;12.40;96.30;;;;;;5028729;28;20459;-79
2022/03/29 12:18:55;;;;;;;46.10;27.60;;;;;;;;;;5038511;28;20477;-79
2022/03/29 12:21:23;;;;;;;40.20;26.20;;;13.10;96.30;;;;;;5022208;28;20458;-79
2022/03/29 12:23:57;;;;;;;30.70;21.40;;;13.20;96.30;;;;;;5039457;28;20495;-80
2022/03/29 12:26:23;;;;;;;33.20;20.90;;;13.10;96.30;;;;;;5020670;28;20422;-80
2022/03/29 12:28:49;;;;;;;31.10;20.90;;;13.10;96.30;;;;;;5039156;28;20447;-80
2022/03/29 12:31:16;;;;;;;39.63;21.27;;;12.50;96.30;;;;;;5021447;28;20442;-79
2022/03/29 12:33:43;;;;;;;34.20;23.60;;;12.00;96.30;;;;;;5020818;28;20957;-80
2022/03/29 12:36:11;;;;;;;38.60;23.97;;;12.10;96.30;;;;;;5019533;28;20975;-80
2022/03/29 12:39:10;;;;;;;32.73;21.00;;;12.30;96.30;;;;;;5021385;28;20427;-80
2022/03/29 12:41:52;;;;;;;42.07;23.97;;;12.40;96.30;;;;;;5038483;28;20969;-80
2022/03/29 12:44:30;;;;;;;39.97;25.30;;;13.10;96.30;;;;;;5038777;28;20456;-79
2022/03/29 12:46:57;;;;;;;40.57;23.73;;;13.30;96.30;;;;;;5037053;28;20410;-79
2022/03/29 12:49:22;;;;;;;40.43;25.57;;;;;;;;;;5019263;28;20545;-80
2022/03/29 12:52:00;;;;;;;45.80;22.83;;;13.50;93.90;;;;;;5038323;28;20459;-80
2022/03/29 12:55:02;;;;;;;38.00;23.13;;;13.10;92.70;;;;;;5038270;28;20648;-79
2022/03/29 12:57:41;;;;;;;36.10;23.07;;;13.10;95.00;;;;;;5019609;28;20462;-79
2022/03/29 13:00:14;;;;;;;38.70;24.20;;;12.80;93.30;;;;;;5037472;28;20411;-80
2022/03/29 13:02:43;;;;;;;38.80;24.47;;;12.70;94.10;;;;;;5038142;28;20419;-80
2022/03/29 13:05:09;;;;;;;39.43;22.90;;;12.80;94.00;;;;;;5021162;28;20434;-80
2022/03/29 13:10:33;;;;;;;36.30;24.07;;;12.90;94.70;;;;;;4988610;28;20499;-81
2022/03/29 13:13:00;;;;;;;41.33;27.23;;;13.30;94.40;;;;;;4997970;28;20432;-80
2022/03/29 13:15:54;;;;;;;42.13;26.07;;;13.10;90.60;;;;;;4995894;28;20429;-80
2022/03/29 13:18:34;;;;;;;41.23;25.33;;;12.80;90.90;;;;;;4995206;28;20429;-81
2022/03/29 13:21:14;;;;;;;49.87;26.57;;;12.90;92.60;;;;;;5012850;28;20475;-81
2022/03/29 13:23:44;;;;;;;44.50;25.47;;;12.80;92.00;;;;;;4998561;28;20408;-80
2022/03/29 13:26:12;;;;;;;48.23;27.27;;;12.70;92.10;;;;;;5016857;28;20487;-80
2022/03/29 13:28:39;;;;;;;40.83;24.70;;;12.70;93.50;;;;;;4998639;28;20408;-80
2022/03/29 13:31:06;;;;;;;42.70;25.97;;;12.80;92.80;;;;;;4998621;28;20436;-80
2022/03/29 13:33:33;;;;;;;42.57;27.50;;;12.80;92.80;;;;;;5016693;28;20404;-80
2022/03/29 13:36:04;;;;;;;37.20;25.90;;;12.70;93.10;;;;;;5013747;28;20451;-80
2022/03/29 13:38:29;;;;;;;42.90;26.47;;;12.80;92.90;;;;;;4995321;28;20927;-79
2022/03/29 13:40:55;;;;;;;40.43;26.67;;;13.00;92.50;;;;;;4992123;28;20503;-79
2022/03/29 13:43:20;;;;;;;48.27;26.50;;;13.10;91.30;;;;;;5016418;28;20180;-80
2022/03/29 13:45:46;;;;;;;42.13;24.47;;;13.20;89.70;;;;;;5013121;28;20636;-80
2022/03/29 13:48:13;;;;;;;36.43;23.93;;;13.20;93.00;;;;;;5000691;28;20204;-79
2022/03/29 13:50:40;;;;;;;30.20;19.40;;;13.10;88.30;;;;;;5000240;28;20197;-79
2022/03/29 13:53:06;;;;;;;37.27;20.53;;;12.70;89.20;;;;;;5014299;28;20432;-79
2022/03/29 13:55:34;;;;;;;37.30;23.50;;;12.50;89.60;;;;;;5018518;28;20419;-79
2022/03/29 13:58:00;;;;;;;40.77;24.77;;;12.40;91.80;;;;;;4984284;28;20498;-79
2022/03/29 14:00:26;;;;;;;47.70;25.47;;;12.40;93.00;;;;;;4997555;28;20432;-79
2022/03/29 14:02:51;;;;;;;40.00;23.57;;;12.40;92.80;;;;;;5021631;28;20474;-79
2022/03/29 14:05:17;;;;;;;43.47;24.70;;;12.50;92.10;;;;;;4998983;28;20173;-79
2022/03/29 14:07:43;;;;;;;36.20;22.50;;;12.50;89.80;;;;;;5008428;28;20871;-79
2022/03/29 14:10:09;;;;;;;41.13;21.80;;;12.50;90.10;;;;;;4988804;28;20595;-78
2022/03/29 14:12:34;;;;;;;42.63;24.70;;;12.40;91.30;;;;;;4999029;28;20193;-79
2022/03/29 14:15:00;;;;;;;40.77;25.20;;;12.10;91.40;;;;;;4980721;28;20173;-80
2022/03/29 14:17:26;;;;;;;44.07;24.20;;;12.00;92.50;;;;;;5001633;28;20232;-79
2022/03/29 14:19:51;;;;;;;38.27;23.80;;;11.60;93.10;;;;;;5013169;28;20219;-75
2022/03/29 14:22:18;;;;;;;42.33;25.97;;;11.40;94.50;;;;;;5010344;28;20605;-76
2022/03/29 14:24:44;;;;;;;45.47;26.83;;;11.40;96.30;;;;;;4995964;28;20184;-77
2022/03/29 14:27:10;;;;;;;46.10;27.80;;;11.20;94.90;;;;;;4989514;28;20420;-77
2022/03/29 14:29:35;;;;;;;45.70;28.10;;;11.20;94.90;;;;;;5002160;28;20928;-77
2022/03/29 14:32:02;;;;;;;49.63;27.13;;;11.20;96.30;;;;;;4992612;28;20564;-78
2022/03/29 14:34:29;;;;;;;50.37;29.50;;;11.20;96.30;;;;;;4982435;28;20212;-76
2022/03/29 14:36:57;;;;;;;48.30;28.03;;;11.20;96.30;;;;;;4990028;28;20456;-76
2022/03/29 14:39:23;;;;;;;48.73;27.40;;;11.30;96.30;;;;;;5009216;28;20478;-78
2022/03/29 14:41:49;;;;;;;49.67;28.20;;;11.30;96.30;;;;;;5008491;28;20424;-77
2022/03/29 14:44:15;;;;;;;48.83;28.50;;;11.30;96.30;;;;;;5002486;28;20172;-77
2022/03/29 14:46:42;;;;;;;46.20;28.33;;;11.40;96.30;;;;;;4994626;28;20926;-77
2022/03/29 14:49:09;;;;;;;49.83;28.97;;;11.30;96.30;;;;;;5011917;28;20180;-76
2022/03/29 14:51:35;;;;;;;45.77;27.50;;;11.20;96.30;;;;;;4994512;28;20534;-76
2022/03/29 14:54:01;;;;;;;49.47;28.43;;;11.10;96.30;;;;;;5012144;28;20494;-76
2022/03/29 14:56:27;;;;;;;45.70;27.67;;;11.00;96.30;;;;;;5012201;28;20563;-77
2022/03/29 14:58:54;;;;;;;51.43;30.57;;;10.90;96.30;;;;;;5011988;28;20947;-77
2022/03/29 15:01:19;;;;;;;52.50;28.30;;;11.10;96.30;;;;;;4995543;28;20221;-77
2022/03/29 15:03:45;;;;;;;49.00;30.50;;;11.10;96.30;;;;;;4984845;28;20405;-78
2022/03/29 15:06:11;;;;;;;42.33;27.20;;;11.30;96.30;;;;;;4991947;28;20577;-79
2022/03/29 15:08:36;;;;;;;41.77;26.40;;;11.50;96.30;;;;;;5007858;28;20169;-78
2022/03/29 15:11:02;;;;;;;41.47;25.50;;;11.50;96.30;;;;;;4992023;28;20443;-77
2022/03/29 15:13:27;;;;;;;43.27;26.93;;;11.40;96.30;;;;;;5011573;28;20227;-77
2022/03/29 15:15:53;;;;;;;46.97;29.03;;;11.10;96.30;;;;;;5011829;28;20667;-76
2022/03/29 15:18:19;;;;;;;39.40;26.80;;;11.10;96.30;;;;;;5011674;28;20223;-76
2022/03/29 15:20:44;;;;;;;45.80;24.90;;;11.10;96.30;;;;;;4994447;28;20247;-76
2022/03/29 15:23:10;;;;;;;41.53;25.70;;;10.90;96.30;;;;;;5015911;28;20712;-77
2022/03/29 15:25:37;;;;;;;41.03;25.70;;;10.90;96.30;;;;;;4995860;28;20170;-76
2022/03/29 15:28:04;;;;;;;53.20;27.33;;;10.80;96.30;;;;;;4978965;28;20448;-76
2022/03/29 15:30:29;;;;;;;47.03;27.47;;;10.70;96.30;;;;;;5015303;28;20434;-79
2022/03/29 15:32:55;;;;;;;42.30;24.37;;;10.60;96.30;;;;;;5015466;28;20412;-76
2022/03/29 15:35:22;;;;;;;39.37;23.53;;;10.60;96.30;;;;;;4997783;28;20169;-76
2022/03/29 15:37:49;;;;;;;48.13;25.13;;;10.60;96.30;;;;;;5014931;28;20250;-81
2022/03/29 15:40:15;;;;;;;44.13;24.53;;;10.60;96.30;;;;;;4998040;28;20412;-78
2022/03/29 15:42:40;;;;;;;42.93;23.93;;;10.50;96.30;;;;;;5015215;28;20821;-77
2022/03/29 15:45:08;;;;;;;40.27;23.77;;;10.30;96.30;;;;;;5015129;28;20173;-78
2022/03/29 15:47:34;;;;;;;36.77;23.47;;;10.20;96.30;;;;;;5014829;28;20168;-77
2022/03/29 15:50:00;;;;;;;48.40;22.40;;;10.20;96.30;;;;;;5014976;28;20766;-77
2022/03/29 15:52:25;;;;;;;44.27;24.33;;;10.10;96.30;;;;;;4998084;28;20203;-78
2022/03/29 15:54:51;;;;;;;42.47;23.73;;;10.10;96.30;;;;;;4982771;28;20424;-78
2022/03/29 15:57:16;;;;;;;39.47;22.40;;;10.20;96.30;;;;;;4977891;28;20206;-79
2022/03/29 15:59:43;;;;;;;40.73;23.70;;;10.10;96.30;;;;;;4977656;28;20173;-79
2022/03/29 16:02:09;;;;;;;45.90;23.20;;;10.10;96.30;;;;;;4981453;28;20259;-79
2022/03/29 16:04:36;;;;;;;33.50;22.43;;;10.20;96.30;;;;;;4977812;28;20511;-78
2022/03/29 16:07:05;;;;;;;35.00;20.73;;;10.10;96.30;;;;;;4994987;28;20412;-78
2022/03/29 16:09:31;;;;;;;38.13;23.20;;;10.00;96.30;;;;;;5007344;28;20431;-77
2022/03/29 16:11:58;;;;;;;38.03;24.53;;;9.90;96.30;;;;;;5014401;28;20435;-79
2022/03/29 16:14:23;;;;;;;33.93;21.03;;;9.80;96.30;;;;;;4994759;28;20413;-78
2022/03/29 16:16:49;;;;;;;37.60;21.70;;;9.80;96.30;;;;;;5012164;28;20457;-80
2022/03/29 16:19:16;;;;;;;39.00;21.53;;;9.70;96.30;;;;;;4997274;28;20522;-79
2022/03/29 16:42:24;;;;;;;34.70;23.60;;;9.20;96.30;;;;;;5800772;23;20499;-79
2022/03/29 16:44:50;;;;;;;42.00;24.03;;;9.00;96.30;;;;;;4997331;28;20471;-81
2022/03/29 16:47:16;;;;;;;40.33;24.43;;;8.90;96.30;;;;;;4997349;28;20174;-80
2022/03/29 16:49:43;;;;;;;45.60;23.97;;;8.80;96.30;;;;;;4979438;28;20189;-81
2022/03/29 16:52:09;;;;;;;36.97;23.97;;;8.70;96.30;;;;;;4979751;28;20643;-79
2022/03/29 16:54:36;;;;;;;51.73;24.63;;;8.60;96.30;;;;;;4997671;28;20413;-80
2022/03/29 16:57:03;;;;;;;39.03;23.50;;;8.50;96.30;;;;;;4983100;28;20460;-80
2022/03/29 16:59:28;;;;;;;40.10;24.87;;;8.40;96.30;;;;;;4976443;28;20662;-78
2022/03/29 17:01:54;;;;;;;38.43;22.40;;;8.30;96.30;;;;;;4964416;28;20637;-82
2022/03/29 17:04:19;;;;;;;42.27;23.03;;;8.20;96.30;;;;;;4986775;28;20181;-82
2022/03/29 17:06:45;;;;;;;41.57;24.07;;;8.10;96.30;;;;;;4998613;28;20191;-80
2022/03/29 17:09:11;;;;;;;42.50;24.50;;;8.00;96.30;;;;;;4977930;28;20184;-81